Map

Track Data

SID SEASON NUMBER BASIN SUBBASIN NAME ISO_TIME NATURE LAT LON WMO_WIND WMO_PRES WMO_AGENCY TRACK_TYPE DIST2LAND LANDFALL IFLAG USA_AGENCY USA_ATCF_ID USA_LAT USA_LON USA_RECORD USA_STATUS USA_WIND USA_PRES USA_SSHS USA_R34_NE USA_R34_SE USA_R34_SW USA_R34_NW USA_R50_NE USA_R50_SE USA_R50_SW USA_R50_NW USA_R64_NE USA_R64_SE USA_R64_SW USA_R64_NW USA_POCI USA_ROCI USA_RMW USA_EYE TOKYO_LAT TOKYO_LON TOKYO_GRADE TOKYO_WIND TOKYO_PRES TOKYO_R50_DIR TOKYO_R50_LONG TOKYO_R50_SHORT TOKYO_R30_DIR TOKYO_R30_LONG TOKYO_R30_SHORT TOKYO_LAND CMA_LAT CMA_LON CMA_CAT CMA_WIND CMA_PRES HKO_LAT HKO_LON HKO_CAT HKO_WIND HKO_PRES NEWDELHI_LAT NEWDELHI_LON NEWDELHI_GRADE NEWDELHI_WIND NEWDELHI_PRES NEWDELHI_CI NEWDELHI_DP NEWDELHI_POCI REUNION_LAT REUNION_LON REUNION_TYPE REUNION_WIND REUNION_PRES REUNION_TNUM REUNION_CI REUNION_RMW REUNION_R34_NE REUNION_R34_SE REUNION_R34_SW REUNION_R34_NW REUNION_R50_NE REUNION_R50_SE REUNION_R50_SW REUNION_R50_NW REUNION_R64_NE REUNION_R64_SE REUNION_R64_SW REUNION_R64_NW BOM_LAT BOM_LON BOM_TYPE BOM_WIND BOM_PRES BOM_TNUM BOM_CI BOM_RMW BOM_R34_NE BOM_R34_SE BOM_R34_SW BOM_R34_NW BOM_R50_NE BOM_R50_SE BOM_R50_SW BOM_R50_NW BOM_R64_NE BOM_R64_SE BOM_R64_SW BOM_R64_NW BOM_ROCI BOM_POCI BOM_EYE BOM_POS_METHOD BOM_PRES_METHOD NADI_LAT NADI_LON NADI_CAT NADI_WIND NADI_PRES WELLINGTON_LAT WELLINGTON_LON WELLINGTON_WIND WELLINGTON_PRES DS824_LAT DS824_LON DS824_STAGE DS824_WIND DS824_PRES TD9636_LAT TD9636_LON TD9636_STAGE TD9636_WIND TD9636_PRES TD9635_LAT TD9635_LON TD9635_WIND TD9635_PRES TD9635_ROCI NEUMANN_LAT NEUMANN_LON NEUMANN_CLASS NEUMANN_WIND NEUMANN_PRES MLC_LAT MLC_LON MLC_CLASS MLC_WIND MLC_PRES USA_GUST BOM_GUST BOM_GUST_PER REUNION_GUST REUNION_GUST_PER USA_SEAHGT USA_SEARAD_NE USA_SEARAD_SE USA_SEARAD_SW USA_SEARAD_NW STORM_SPEED STORM_DIR
1945261N18089 1945 62 NI BB NOT_NAMED 1945-09-17 18:00:00 TS 17.6000 89.2000 main 398 390 O________O____ jtwc_io IO061945 17.6000 89.2000 -1 17.6000 89.2000 TC 2 298
1945261N18089 1945 62 NI BB NOT_NAMED 1945-09-17 21:00:00 TS 17.6375 89.1225 main 390 375 P________P____ IO061945 17.6375 89.1225 -1 17.6375 89.1225 TC 2 298
1945261N18089 1945 62 NI BB NOT_NAMED 1945-09-18 00:00:00 TS 17.7000 89.0000 main 375 352 O________O____ jtwc_io IO061945 17.7000 89.0000 -1 17.7000 89.0000 TC 25 3 298
1945261N18089 1945 62 NI BB NOT_NAMED 1945-09-18 03:00:00 TS 17.8000 88.8067 main 352 329 P________PO___ IO061945 17.8000 88.8075 -1 17.8000 88.8075 TC 25 17.8000 88.8000 1 4 297
1945261N18089 1945 62 NI BB NOT_NAMED 1945-09-18 06:00:00 TS 17.8973 88.6013 main 329 314 O________OP___ jtwc_io IO061945 17.9000 88.6000 -1 17.9000 88.6000 TC 25 17.8863 88.6066 1 4 295
1945261N18089 1945 62 NI BB NOT_NAMED 1945-09-18 09:00:00 TS 17.9603 88.4419 main 307 299 P________PP___ IO061945 17.9574 88.4500 -1 17.9574 88.4500 TC 25 17.9680 88.4204 1 3 291
1945261N18089 1945 62 NI BB NOT_NAMED 1945-09-18 12:00:00 TS 18.0136 88.2830 main 299 277 O________OP___ jtwc_io IO061945 18.0000 88.3000 -1 18.0000 88.3000 TC 25 18.0407 88.2490 1 3 288
1945261N18089 1945 62 NI BB NOT_NAMED 1945-09-18 15:00:00 TS 18.0667 88.1000 main 277 264 P________PO___ IO061945 18.0500 88.1000 -1 18.0500 88.1000 TC 25 18.1000 88.1000 1 4 287
1945261N18089 1945 62 NI BB NOT_NAMED 1945-09-18 18:00:00 TS 18.1148 87.9245 main 264 249 O________OP___ jtwc_io IO061945 18.1000 87.9000 -1 18.1000 87.9000 TC 25 18.1445 87.9734 1 3 287
1945261N18089 1945 62 NI BB NOT_NAMED 1945-09-18 21:00:00 TS 18.1563 87.7848 main 249 237 P________PP___ IO061945 18.1424 87.7574 -1 18.1424 87.7574 TC 25 18.1842 87.8394 1 3 288
1945261N18089 1945 62 NI BB NOT_NAMED 1945-09-19 00:00:00 TS 18.2106 87.6203 main 237 217 O________OP___ jtwc_io IO061945 18.2000 87.6000 -1 18.2000 87.6000 TC 25 18.2318 87.6608 1 4 290
1945261N18089 1945 62 NI BB NOT_NAMED 1945-09-19 03:00:00 TS 18.2898 87.4066 main 217 193 P________PO___ IO061945 18.2848 87.4099 -1 18.2848 87.4099 TC 25 18.3000 87.4000 1 6 290
1945261N18089 1945 62 NI BB NOT_NAMED 1945-09-19 06:00:00 TS 18.4013 87.0678 main 193 165 O________OP___ jtwc_io IO061945 18.4000 87.1000 -1 18.4000 87.1000 TC 25 18.4040 87.0034 1 8 288
1945261N18089 1945 62 NI BB NOT_NAMED 1945-09-19 09:00:00 TS 18.5430 86.5619 main 165 118 P________PP___ IO061945 18.5503 86.5802 -1 18.5503 86.5802 TC 25 18.5283 86.5253 1 11 286
1945261N18089 1945 62 NI BB NOT_NAMED 1945-09-19 12:00:00 TS 18.6878 86.0032 main 118 84 O________OP___ jtwc_io IO061945 18.7000 86.0000 -1 18.7000 86.0000 TC 25 18.6633 86.0096 1 10 285
1945261N18089 1945 62 NI BB NOT_NAMED 1945-09-19 15:00:00 TS 18.7998 85.5232 main 84 43 P________PO___ IO061945 18.7998 85.5348 -1 18.7998 85.5348 TC 25 18.8000 85.5000 1 9 284
1945261N18089 1945 62 NI BB NOT_NAMED 1945-09-19 18:00:00 TS 18.9040 85.0921 main 43 0 O________OP___ jtwc_io IO061945 18.9000 85.1000 -1 18.9000 85.1000 TC 25 18.9121 85.0763 1 9 286
1945261N18089 1945 62 NI BB NOT_NAMED 1945-09-19 21:00:00 TS 19.0371 84.6547 main 0 0 P________PP___ IO061945 19.0424 84.6500 -1 19.0424 84.6500 TC 25 19.0265 84.6641 1 9 289
1945261N18089 1945 62 NI BB NOT_NAMED 1945-09-20 00:00:00 TS 19.1842 84.2150 main 0 0 O________OP___ jtwc_io IO061945 19.2000 84.2000 -1 19.2000 84.2000 TC 25 19.1527 84.2449 1 9 289
1945261N18089 1945 62 NI BB NOT_NAMED 1945-09-20 03:00:00 TS 19.3282 83.7765 main 0 0 P________PO___ IO061945 19.3423 83.7648 -1 19.3423 83.7648 TC 25 19.3000 83.8000 1 9 290
1945261N18089 1945 62 NI BB NOT_NAMED 1945-09-20 06:00:00 TS 19.4929 83.2972 main 0 0 O________OP___ jtwc_io IO061945 19.5000 83.3000 -1 19.5000 83.3000 TC 25 19.4786 83.2917 1 10 290
1945261N18089 1945 62 NI BB NOT_NAMED 1945-09-20 09:00:00 TS 19.6876 82.7526 main 0 0 P________PP___ IO061945 19.6926 82.7500 -1 19.6926 82.7500 TC 25 19.6778 82.7577 1 11 291
1945261N18089 1945 62 NI BB NOT_NAMED 1945-09-20 12:00:00 TS 19.8960 82.2066 main 0 0 O________OP___ jtwc_io IO061945 19.9000 82.2000 -1 19.9000 82.2000 TC 25 19.8880 82.2198 1 11 293
1945261N18089 1945 62 NI BB NOT_NAMED 1945-09-20 15:00:00 TS 20.0998 81.7232 main 0 0 P________PO___ IO061945 20.0998 81.7348 -1 20.0998 81.7348 TC 25 20.1000 81.7000 1 10 295
1945261N18089 1945 62 NI BB NOT_NAMED 1945-09-20 18:00:00 TS 20.3011 81.2760 main 0 0 O________OP___ jtwc_io IO061945 20.3000 81.3000 -1 20.3000 81.3000 TC 25 20.3034 81.2281 1 9 296
1945261N18089 1945 62 NI BB NOT_NAMED 1945-09-20 21:00:00 TS 20.5021 80.8256 main 0 0 P________PP___ IO061945 20.4999 80.8499 -1 20.4999 80.8499 TC 25 20.5067 80.7770 1 9 296
1945261N18089 1945 62 NI BB NOT_NAMED 1945-09-21 00:00:00 TS 20.7022 80.3792 main 0 0 O________OP___ jtwc_io IO061945 20.7000 80.4000 -1 20.7000 80.4000 TC 25 20.7066 80.3375 1 9 296
1945261N18089 1945 62 NI BB NOT_NAMED 1945-09-21 03:00:00 TS 20.9049 79.9333 main 0 0 P________PO___ IO061945 20.9074 79.9500 -1 20.9074 79.9500 TC 25 20.9000 79.9000 1 9 295
1945261N18089 1945 62 NI BB NOT_NAMED 1945-09-21 06:00:00 TS 21.0980 79.4846 main 0 0 O________OP___ jtwc_io IO061945 21.1000 79.5000 -1 21.1000 79.5000 TC 25 21.0939 79.4539 1 9 293
1945261N18089 1945 62 NI BB NOT_NAMED 1945-09-21 09:00:00 TS 21.2647 79.0406 main 0 0 P________PP___ IO061945 21.2573 79.0573 -1 21.2573 79.0573 TC 25 21.2794 79.0073 1 9 291
1945261N18089 1945 62 NI BB NOT_NAMED 1945-09-21 12:00:00 TS 21.4167 78.5857 main 0 0 O________OP___ jtwc_io IO061945 21.4000 78.6000 -1 21.4000 78.6000 TC 25 21.4502 78.5571 1 9 289
1945261N18089 1945 62 NI BB NOT_NAMED 1945-09-21 15:00:00 TS 21.5717 78.1000 main 0 0 P________PO___ IO061945 21.5575 78.1000 -1 21.5575 78.1000 TC 25 21.6000 78.1000 1 10 288
1945261N18089 1945 62 NI AS NOT_NAMED 1945-09-21 18:00:00 TS 21.7112 77.6080 main 0 0 O________OP___ jtwc_io IO061945 21.7000 77.6000 -1 21.7000 77.6000 TC 25 21.7336 77.6239 1 9 286
1945261N18089 1945 62 NI AS NOT_NAMED 1945-09-21 21:00:00 TS 21.8248 77.1474 main 0 0 P________PP___ IO061945 21.8148 77.1499 -1 21.8148 77.1499 TC 25 21.8448 77.1423 1 9 283
1945261N18089 1945 62 NI AS NOT_NAMED 1945-09-22 00:00:00 TS 21.9112 76.6882 main 0 0 O________OP___ jtwc_io IO061945 21.9000 76.7000 -1 21.9000 76.7000 TC 25 21.9336 76.6646 1 9 280
1945261N18089 1945 62 NI AS NOT_NAMED 1945-09-22 03:00:00 TS 21.9767 76.1950 main 0 0 P________PO___ IO061945 21.9650 76.1925 -1 21.9650 76.1925 TC 25 22.0000 76.2000 1 9 276
1945261N18089 1945 62 NI AS NOT_NAMED 1945-09-22 06:00:00 TS 22.0046 75.7145 main 0 0 O________OP___ jtwc_io IO061945 22.0000 75.7000 -1 22.0000 75.7000 TC 25 22.0138 75.7434 1 8 271
1945261N18089 1945 62 NI AS NOT_NAMED 1945-09-22 09:00:00 TS 21.9939 75.2910 main 0 0 P________PP___ IO061945 21.9848 75.2847 -1 21.9848 75.2847 TC 25 22.0122 75.3036 1 8 270
1945261N18089 1945 62 NI AS NOT_NAMED 1945-09-22 12:00:00 TS 22.0098 74.8957 main 0 0 O________OP___ jtwc_io IO061945 22.0000 74.9000 -1 22.0000 74.9000 TC 25 22.0295 74.8871 1 7 279
1945261N18089 1945 62 NI AS NOT_NAMED 1945-09-22 15:00:00 TS 22.1083 74.4950 main 0 0 P________PO___ IO061945 22.1125 74.4925 -1 22.1125 74.4925 TC 25 22.1000 74.5000 1 8 291
1945261N18089 1945 62 NI AS NOT_NAMED 1945-09-22 18:00:00 TS 22.2892 74.0995 main 0 0 O________OP___ jtwc_io IO061945 22.3000 74.1000 -1 22.3000 74.1000 TC 25 22.2675 74.0984 1 8 300
1945261N18089 1945 62 NI AS NOT_NAMED 1945-09-22 21:00:00 TS 22.5250 73.7189 main 0 0 P________PP___ IO061945 22.5425 73.7127 -1 22.5425 73.7127 TC 25 22.4901 73.7313 1 8 308
1945261N18089 1945 62 NI AS NOT_NAMED 1945-09-23 00:00:00 TS 22.7809 73.4078 main 0 0 O________OP___ jtwc_io IO061945 22.8000 73.4000 -1 22.8000 73.4000 TC 25 22.7426 73.4234 1 7 315
1945261N18089 1945 62 NI AS NOT_NAMED 1945-09-23 03:00:00 TS 22.9999 73.2032 main 0 0 P________PO___ IO061945 22.9999 73.2048 -1 22.9999 73.2048 TC 25 23.0000 73.2000 1 5 325
1945261N18089 1945 62 NI AS NOT_NAMED 1945-09-23 06:00:00 TS 23.2068 73.0893 main 0 0 O________OP___ jtwc_io IO061945 23.2000 73.1000 -1 23.2000 73.1000 TC 25 23.2205 73.0680 1 5 339
1945261N18089 1945 62 NI AS NOT_NAMED 1945-09-23 09:00:00 TS 23.4473 73.0157 main 0 0 P________PP___ IO061945 23.4500 73.0125 -1 23.4500 73.0125 TC 25 23.4420 73.0220 1 5 351
1945261N18089 1945 62 NI AS NOT_NAMED 1945-09-23 12:00:00 TS 23.6892 73.0134 main 0 0 O________OP___ jtwc_io IO061945 23.7000 73.0000 -1 23.7000 73.0000 TC 25 23.6675 73.0401 1 5 9
1945261N18089 1945 62 NI AS NOT_NAMED 1945-09-23 15:00:00 TS 23.9000 73.0850 main 0 0 P________PO___ IO061945 23.9000 73.0774 -1 23.9000 73.0774 TC 25 23.9000 73.1000 1 5 20
1945261N18089 1945 62 NI AS NOT_NAMED 1945-09-23 18:00:00 TS 24.1102 73.1840 main 0 0 O________OP___ jtwc_io IO061945 24.1000 73.2000 -1 24.1000 73.2000 TC 25 24.1306 73.1519 1 5 21
1945261N18089 1945 62 NI AS NOT_NAMED 1945-09-23 21:00:00 TS 24.3466 73.2751 main 0 0 P________PP___ IO061945 24.3350 73.2926 -1 24.3350 73.2926 TC 25 24.3699 73.2402 1 5 20
1945261N18089 1945 62 NI AS NOT_NAMED 1945-09-24 00:00:00 TS 24.6081 73.3861 main 0 0 O________OP___ jtwc_io IO061945 24.6000 73.4000 -1 24.6000 73.4000 TC 25 24.6243 73.3583 1 6 23
1945261N18089 1945 62 NI AS NOT_NAMED 1945-09-24 03:00:00 TS 24.8900 73.5284 main 0 0 P________PO___ IO061945 24.8850 73.5425 -1 24.8850 73.5425 TC 25 24.9000 73.5000 1 7 24
1945261N18089 1945 62 NI AS NOT_NAMED 1945-09-24 06:00:00 TS 25.1998 73.6818 main 0 0 O________OP___ jtwc_io IO061945 25.2000 73.7000 -1 25.2000 73.7000 TC 25 25.1994 73.6454 1 7 23
1945261N18089 1945 62 NI AS NOT_NAMED 1945-09-24 09:00:00 TS 25.5400 73.8326 main 0 0 P________PP___ IO061945 25.5500 73.8426 -1 25.5500 73.8426 TC 25 25.5200 73.8127 1 7 23
1945261N18089 1945 62 NI AS NOT_NAMED 1945-09-24 12:00:00 TS 25.8852 73.9996 main 0 0 O________OP___ jtwc_io IO061945 25.9000 74.0000 -1 25.9000 74.0000 TC 25 25.8556 73.9987 1 7 26
1945261N18089 1945 62 NI AS NOT_NAMED 1945-09-24 15:00:00 TS 26.2000 74.1901 main 0 0 P________PO___ IO061945 26.2000 74.1852 -1 26.2000 74.1852 TC 25 26.2000 74.2000 1 7 30
1945261N18089 1945 62 NI AS NOT_NAMED 1945-09-24 18:00:00 TS 26.5192 74.4054 main 0 0 O________OP___ jtwc_io IO061945 26.5000 74.4000 -1 26.5000 74.4000 TC 25 26.5480 74.4134 1 8 31
1945261N18089 1945 62 NI AS NOT_NAMED 1945-09-24 21:00:00 TS 26.8634 74.6396 main 0 0 P________PP___ IO061945 26.8376 74.6421 -1 26.8376 74.6421 TC 25 26.8978 74.6363 1 8 31
1945261N18089 1945 62 NI AS NOT_NAMED 1945-09-25 00:00:00 TS 27.2244 74.8830 main 0 0 O________OP___ jtwc_io IO061945 27.2000 74.9000 -1 27.2000 74.9000 TC 25 27.2487 74.8661 1 8 29
1945261N18089 1945 62 NI AS NOT_NAMED 1945-09-25 03:00:00 NR 27.6000 75.1000 main 0 __________O___ IO061945 -1 TC 27.6000 75.1000 1 8 27

About IBTrACS Database

This database is a web-friendly format of International Best Track Archive for Climate Stewardship (IBTrACS), a global best track data archive curated by NOAA dating back to 1842.

Updated: 2021-12-01